sensor_id;sensor_type;location;lat;lon;timestamp;P1;durP1;ratioP1;P2;durP2;ratioP2
8225;SDS011;4154;48.810;9.012;2023-07-02T00:01:43;4.20;;;3.47;;
8225;SDS011;4154;48.810;9.012;2023-07-02T00:04:09;4.10;;;3.70;;
8225;SDS011;4154;48.810;9.012;2023-07-02T00:06:38;3.88;;;3.53;;
8225;SDS011;4154;48.810;9.012;2023-07-02T00:09:05;4.22;;;3.83;;
8225;SDS011;4154;48.810;9.012;2023-07-02T00:11:32;4.00;;;3.60;;
8225;SDS011;4154;48.810;9.012;2023-07-02T00:13:58;3.90;;;3.50;;
8225;SDS011;4154;48.810;9.012;2023-07-02T00:16:24;4.30;;;4.00;;
8225;SDS011;4154;48.810;9.012;2023-07-02T00:18:50;3.80;;;3.50;;
8225;SDS011;4154;48.810;9.012;2023-07-02T00:21:18;3.80;;;3.50;;
8225;SDS011;4154;48.810;9.012;2023-07-02T00:23:44;4.20;;;3.88;;
8225;SDS011;4154;48.810;9.012;2023-07-02T00:26:11;4.75;;;3.50;;
8225;SDS011;4154;48.810;9.012;2023-07-02T00:28:37;4.13;;;3.72;;
8225;SDS011;4154;48.810;9.012;2023-07-02T00:31:03;4.10;;;3.80;;
8225;SDS011;4154;48.810;9.012;2023-07-02T00:33:29;3.42;;;3.22;;
8225;SDS011;4154;48.810;9.012;2023-07-02T00:35:56;3.60;;;3.30;;
8225;SDS011;4154;48.810;9.012;2023-07-02T00:38:22;3.65;;;3.35;;
8225;SDS011;4154;48.810;9.012;2023-07-02T00:40:48;3.88;;;3.55;;
8225;SDS011;4154;48.810;9.012;2023-07-02T00:43:14;3.83;;;3.30;;
8225;SDS011;4154;48.810;9.012;2023-07-02T00:45:40;3.92;;;3.63;;
8225;SDS011;4154;48.810;9.012;2023-07-02T00:48:06;4.40;;;3.55;;
8225;SDS011;4154;48.810;9.012;2023-07-02T00:50:32;3.60;;;3.30;;
8225;SDS011;4154;48.810;9.012;2023-07-02T00:52:59;4.25;;;3.45;;
8225;SDS011;4154;48.810;9.012;2023-07-02T00:55:25;3.80;;;3.50;;
8225;SDS011;4154;48.810;9.012;2023-07-02T00:57:50;3.63;;;3.33;;
8225;SDS011;4154;48.810;9.012;2023-07-02T01:00:16;3.50;;;3.20;;
8225;SDS011;4154;48.810;9.012;2023-07-02T01:02:42;3.60;;;3.30;;
8225;SDS011;4154;48.810;9.012;2023-07-02T01:05:15;3.58;;;3.28;;
8225;SDS011;4154;48.810;9.012;2023-07-02T01:07:41;3.60;;;3.30;;
8225;SDS011;4154;48.810;9.012;2023-07-02T01:10:07;4.30;;;3.28;;
8225;SDS011;4154;48.810;9.012;2023-07-02T01:12:34;3.60;;;3.30;;
8225;SDS011;4154;48.810;9.012;2023-07-02T01:15:02;3.70;;;3.38;;
8225;SDS011;4154;48.810;9.012;2023-07-02T01:17:31;4.45;;;3.40;;
8225;SDS011;4154;48.810;9.012;2023-07-02T01:20:06;4.10;;;3.40;;
8225;SDS011;4154;48.810;9.012;2023-07-02T01:22:34;3.80;;;3.50;;
8225;SDS011;4154;48.810;9.012;2023-07-02T01:25:01;4.65;;;3.67;;
8225;SDS011;4154;48.810;9.012;2023-07-02T01:27:28;3.72;;;3.42;;
8225;SDS011;4154;48.810;9.012;2023-07-02T01:29:54;3.60;;;3.30;;
8225;SDS011;4154;48.810;9.012;2023-07-02T01:32:20;3.67;;;3.10;;
8225;SDS011;4154;48.810;9.012;2023-07-02T01:34:47;3.92;;;3.40;;
8225;SDS011;4154;48.810;9.012;2023-07-02T01:37:18;3.55;;;3.25;;
8225;SDS011;4154;48.810;9.012;2023-07-02T01:39:44;3.40;;;3.10;;
8225;SDS011;4154;48.810;9.012;2023-07-02T01:44:41;3.50;;;3.30;;
8225;SDS011;4154;48.810;9.012;2023-07-02T01:47:09;3.40;;;3.20;;
8225;SDS011;4154;48.810;9.012;2023-07-02T01:49:34;3.80;;;3.30;;
8225;SDS011;4154;48.810;9.012;2023-07-02T01:52:03;3.35;;;3.05;;
8225;SDS011;4154;48.810;9.012;2023-07-02T01:54:31;3.67;;;3.38;;
8225;SDS011;4154;48.810;9.012;2023-07-02T01:56:58;3.60;;;3.30;;
8225;SDS011;4154;48.810;9.012;2023-07-02T01:59:24;4.10;;;3.72;;
8225;SDS011;4154;48.810;9.012;2023-07-02T02:01:51;4.07;;;3.70;;
8225;SDS011;4154;48.810;9.012;2023-07-02T02:04:17;3.72;;;3.42;;
8225;SDS011;4154;48.810;9.012;2023-07-02T02:06:43;4.18;;;3.35;;
8225;SDS011;4154;48.810;9.012;2023-07-02T02:09:09;4.47;;;3.75;;
8225;SDS011;4154;48.810;9.012;2023-07-02T02:11:36;3.85;;;3.55;;
8225;SDS011;4154;48.810;9.012;2023-07-02T02:14:09;4.38;;;3.97;;
8225;SDS011;4154;48.810;9.012;2023-07-02T02:16:35;4.55;;;3.70;;
8225;SDS011;4154;48.810;9.012;2023-07-02T02:19:01;4.53;;;4.10;;
8225;SDS011;4154;48.810;9.012;2023-07-02T02:21:28;4.35;;;3.95;;
8225;SDS011;4154;48.810;9.012;2023-07-02T02:23:53;3.95;;;3.65;;
8225;SDS011;4154;48.810;9.012;2023-07-02T02:26:20;3.97;;;3.58;;
8225;SDS011;4154;48.810;9.012;2023-07-02T02:28:47;5.22;;;3.88;;
8225;SDS011;4154;48.810;9.012;2023-07-02T02:31:14;4.82;;;3.75;;
8225;SDS011;4154;48.810;9.012;2023-07-02T02:33:40;3.95;;;3.63;;
8225;SDS011;4154;48.810;9.012;2023-07-02T02:36:06;4.30;;;3.90;;
8225;SDS011;4154;48.810;9.012;2023-07-02T02:38:33;3.97;;;3.67;;
8225;SDS011;4154;48.810;9.012;2023-07-02T02:40:59;4.25;;;3.28;;
8225;SDS011;4154;48.810;9.012;2023-07-02T02:43:27;4.60;;;3.90;;
8225;SDS011;4154;48.810;9.012;2023-07-02T02:45:52;3.92;;;3.55;;
8225;SDS011;4154;48.810;9.012;2023-07-02T02:48:18;4.00;;;3.60;;
8225;SDS011;4154;48.810;9.012;2023-07-02T02:50:44;4.68;;;3.55;;
8225;SDS011;4154;48.810;9.012;2023-07-02T02:53:10;4.93;;;3.70;;
8225;SDS011;4154;48.810;9.012;2023-07-02T02:55:36;3.80;;;3.38;;
8225;SDS011;4154;48.810;9.012;2023-07-02T02:58:02;5.53;;;3.65;;
8225;SDS011;4154;48.810;9.012;2023-07-02T03:00:28;4.68;;;3.47;;
8225;SDS011;4154;48.810;9.012;2023-07-02T03:02:54;5.07;;;3.22;;
8225;SDS011;4154;48.810;9.012;2023-07-02T03:05:21;6.80;;;3.40;;
8225;SDS011;4154;48.810;9.012;2023-07-02T03:07:50;4.63;;;3.38;;
8225;SDS011;4154;48.810;9.012;2023-07-02T03:10:16;4.18;;;3.72;;
8225;SDS011;4154;48.810;9.012;2023-07-02T03:12:43;4.63;;;3.58;;
8225;SDS011;4154;48.810;9.012;2023-07-02T03:15:09;6.30;;;3.58;;
8225;SDS011;4154;48.810;9.012;2023-07-02T03:17:35;5.30;;;3.50;;
8225;SDS011;4154;48.810;9.012;2023-07-02T03:20:01;4.38;;;3.20;;
8225;SDS011;4154;48.810;9.012;2023-07-02T03:22:32;3.67;;;3.30;;
8225;SDS011;4154;48.810;9.012;2023-07-02T03:24:58;5.80;;;3.60;;
8225;SDS011;4154;48.810;9.012;2023-07-02T03:27:24;4.38;;;3.55;;
8225;SDS011;4154;48.810;9.012;2023-07-02T03:29:51;6.80;;;3.95;;
8225;SDS011;4154;48.810;9.012;2023-07-02T03:32:17;6.53;;;3.72;;
8225;SDS011;4154;48.810;9.012;2023-07-02T03:34:43;7.38;;;3.88;;
8225;SDS011;4154;48.810;9.012;2023-07-02T03:37:09;4.22;;;3.75;;
8225;SDS011;4154;48.810;9.012;2023-07-02T03:39:36;6.03;;;3.97;;
8225;SDS011;4154;48.810;9.012;2023-07-02T03:42:01;5.72;;;3.67;;
8225;SDS011;4154;48.810;9.012;2023-07-02T03:44:27;5.13;;;3.85;;
8225;SDS011;4154;48.810;9.012;2023-07-02T03:46:53;3.97;;;3.42;;
8225;SDS011;4154;48.810;9.012;2023-07-02T03:49:19;5.18;;;3.95;;
8225;SDS011;4154;48.810;9.012;2023-07-02T03:51:45;5.25;;;3.42;;
8225;SDS011;4154;48.810;9.012;2023-07-02T03:54:11;4.40;;;3.45;;
8225;SDS011;4154;48.810;9.012;2023-07-02T03:56:37;5.32;;;3.88;;
8225;SDS011;4154;48.810;9.012;2023-07-02T03:59:03;4.97;;;4.00;;
8225;SDS011;4154;48.810;9.012;2023-07-02T04:01:29;5.47;;;4.18;;
8225;SDS011;4154;48.810;9.012;2023-07-02T04:03:55;5.28;;;3.85;;
8225;SDS011;4154;48.810;9.012;2023-07-02T04:06:21;5.80;;;4.22;;
8225;SDS011;4154;48.810;9.012;2023-07-02T04:08:47;9.13;;;3.90;;
8225;SDS011;4154;48.810;9.012;2023-07-02T04:11:14;4.60;;;3.88;;
8225;SDS011;4154;48.810;9.012;2023-07-02T04:13:40;5.95;;;3.72;;
8225;SDS011;4154;48.810;9.012;2023-07-02T04:16:06;6.05;;;4.10;;
8225;SDS011;4154;48.810;9.012;2023-07-02T04:18:32;7.40;;;4.18;;
8225;SDS011;4154;48.810;9.012;2023-07-02T04:20:58;4.35;;;3.80;;
8225;SDS011;4154;48.810;9.012;2023-07-02T04:23:25;5.85;;;4.30;;
8225;SDS011;4154;48.810;9.012;2023-07-02T04:25:51;8.88;;;4.32;;
8225;SDS011;4154;48.810;9.012;2023-07-02T04:28:16;6.75;;;4.13;;
8225;SDS011;4154;48.810;9.012;2023-07-02T04:30:43;4.85;;;3.80;;
8225;SDS011;4154;48.810;9.012;2023-07-02T04:33:09;6.82;;;4.18;;
8225;SDS011;4154;48.810;9.012;2023-07-02T04:35:39;6.63;;;4.07;;
8225;SDS011;4154;48.810;9.012;2023-07-02T04:38:05;7.05;;;4.55;;
8225;SDS011;4154;48.810;9.012;2023-07-02T04:40:32;6.43;;;4.50;;
8225;SDS011;4154;48.810;9.012;2023-07-02T04:42:57;7.20;;;4.20;;
8225;SDS011;4154;48.810;9.012;2023-07-02T04:45:24;6.45;;;3.95;;
8225;SDS011;4154;48.810;9.012;2023-07-02T04:47:51;4.03;;;3.63;;
8225;SDS011;4154;48.810;9.012;2023-07-02T04:50:18;5.53;;;3.80;;
8225;SDS011;4154;48.810;9.012;2023-07-02T04:52:44;5.72;;;4.22;;
8225;SDS011;4154;48.810;9.012;2023-07-02T04:55:10;5.75;;;4.15;;
8225;SDS011;4154;48.810;9.012;2023-07-02T04:57:36;5.25;;;4.00;;
8225;SDS011;4154;48.810;9.012;2023-07-02T05:00:03;4.50;;;4.05;;
8225;SDS011;4154;48.810;9.012;2023-07-02T05:02:31;6.78;;;3.83;;
8225;SDS011;4154;48.810;9.012;2023-07-02T05:04:57;5.95;;;3.72;;
8225;SDS011;4154;48.810;9.012;2023-07-02T05:07:22;5.63;;;4.25;;
8225;SDS011;4154;48.810;9.012;2023-07-02T05:09:48;5.90;;;3.80;;
8225;SDS011;4154;48.810;9.012;2023-07-02T05:12:16;5.22;;;3.83;;
8225;SDS011;4154;48.810;9.012;2023-07-02T05:14:42;5.72;;;4.32;;
8225;SDS011;4154;48.810;9.012;2023-07-02T05:17:08;6.78;;;4.03;;
8225;SDS011;4154;48.810;9.012;2023-07-02T05:19:34;5.53;;;3.97;;
8225;SDS011;4154;48.810;9.012;2023-07-02T05:22:00;6.97;;;4.50;;
8225;SDS011;4154;48.810;9.012;2023-07-02T05:24:27;8.57;;;4.45;;
8225;SDS011;4154;48.810;9.012;2023-07-02T05:26:53;5.38;;;4.25;;
8225;SDS011;4154;48.810;9.012;2023-07-02T05:29:20;6.20;;;4.40;;
8225;SDS011;4154;48.810;9.012;2023-07-02T05:31:45;4.57;;;4.10;;
8225;SDS011;4154;48.810;9.012;2023-07-02T05:34:11;5.05;;;4.47;;
8225;SDS011;4154;48.810;9.012;2023-07-02T05:36:37;4.88;;;4.25;;
8225;SDS011;4154;48.810;9.012;2023-07-02T05:39:03;7.10;;;5.22;;
8225;SDS011;4154;48.810;9.012;2023-07-02T05:41:29;7.60;;;5.03;;
8225;SDS011;4154;48.810;9.012;2023-07-02T05:43:58;6.38;;;4.70;;
8225;SDS011;4154;48.810;9.012;2023-07-02T05:46:24;8.30;;;4.65;;
8225;SDS011;4154;48.810;9.012;2023-07-02T05:48:50;8.45;;;4.90;;
8225;SDS011;4154;48.810;9.012;2023-07-02T05:51:23;9.13;;;5.30;;
8225;SDS011;4154;48.810;9.012;2023-07-02T05:53:49;10.25;;;5.63;;
8225;SDS011;4154;48.810;9.012;2023-07-02T05:56:16;7.18;;;5.38;;
8225;SDS011;4154;48.810;9.012;2023-07-02T05:58:42;9.57;;;5.53;;
8225;SDS011;4154;48.810;9.012;2023-07-02T06:01:09;8.93;;;5.78;;
8225;SDS011;4154;48.810;9.012;2023-07-02T06:03:35;11.43;;;5.95;;
8225;SDS011;4154;48.810;9.012;2023-07-02T06:06:02;9.30;;;6.15;;
8225;SDS011;4154;48.810;9.012;2023-07-02T06:08:28;7.55;;;5.38;;
8225;SDS011;4154;48.810;9.012;2023-07-02T06:10:54;7.22;;;5.53;;
8225;SDS011;4154;48.810;9.012;2023-07-02T06:13:20;8.98;;;5.78;;
8225;SDS011;4154;48.810;9.012;2023-07-02T06:15:45;8.52;;;5.90;;
8225;SDS011;4154;48.810;9.012;2023-07-02T06:18:12;7.43;;;6.13;;
8225;SDS011;4154;48.810;9.012;2023-07-02T06:20:38;9.43;;;6.05;;
8225;SDS011;4154;48.810;9.012;2023-07-02T06:23:04;9.20;;;5.85;;
8225;SDS011;4154;48.810;9.012;2023-07-02T06:25:30;7.80;;;6.07;;
8225;SDS011;4154;48.810;9.012;2023-07-02T06:27:56;8.65;;;6.15;;
8225;SDS011;4154;48.810;9.012;2023-07-02T06:30:23;11.27;;;7.43;;
8225;SDS011;4154;48.810;9.012;2023-07-02T06:32:49;9.80;;;6.82;;
8225;SDS011;4154;48.810;9.012;2023-07-02T06:35:15;9.23;;;6.15;;
8225;SDS011;4154;48.810;9.012;2023-07-02T06:37:42;10.82;;;7.15;;
8225;SDS011;4154;48.810;9.012;2023-07-02T06:40:08;8.57;;;6.40;;
8225;SDS011;4154;48.810;9.012;2023-07-02T06:42:35;10.52;;;6.80;;
8225;SDS011;4154;48.810;9.012;2023-07-02T06:45:01;10.63;;;7.10;;
8225;SDS011;4154;48.810;9.012;2023-07-02T06:47:28;11.68;;;7.45;;
8225;SDS011;4154;48.810;9.012;2023-07-02T06:49:54;10.23;;;7.40;;
8225;SDS011;4154;48.810;9.012;2023-07-02T06:52:20;9.88;;;7.25;;
8225;SDS011;4154;48.810;9.012;2023-07-02T06:54:46;10.68;;;7.65;;
8225;SDS011;4154;48.810;9.012;2023-07-02T06:57:12;10.10;;;6.90;;
8225;SDS011;4154;48.810;9.012;2023-07-02T06:59:38;9.68;;;7.68;;
8225;SDS011;4154;48.810;9.012;2023-07-02T07:02:05;10.82;;;7.40;;
8225;SDS011;4154;48.810;9.012;2023-07-02T07:04:31;13.68;;;8.55;;
8225;SDS011;4154;48.810;9.012;2023-07-02T07:06:57;13.70;;;9.48;;
8225;SDS011;4154;48.810;9.012;2023-07-02T07:09:23;12.52;;;8.77;;
8225;SDS011;4154;48.810;9.012;2023-07-02T07:11:50;18.08;;;8.93;;
8225;SDS011;4154;48.810;9.012;2023-07-02T07:14:16;13.68;;;9.50;;
8225;SDS011;4154;48.810;9.012;2023-07-02T07:16:42;15.60;;;9.00;;
8225;SDS011;4154;48.810;9.012;2023-07-02T07:19:08;12.93;;;8.75;;
8225;SDS011;4154;48.810;9.012;2023-07-02T07:21:34;14.05;;;9.20;;
8225;SDS011;4154;48.810;9.012;2023-07-02T07:24:00;12.85;;;8.90;;
8225;SDS011;4154;48.810;9.012;2023-07-02T07:26:27;12.27;;;9.10;;
8225;SDS011;4154;48.810;9.012;2023-07-02T07:28:53;14.32;;;9.48;;
8225;SDS011;4154;48.810;9.012;2023-07-02T07:31:22;13.95;;;9.70;;
8225;SDS011;4154;48.810;9.012;2023-07-02T07:33:49;14.50;;;9.25;;
8225;SDS011;4154;48.810;9.012;2023-07-02T07:36:15;15.43;;;10.25;;
8225;SDS011;4154;48.810;9.012;2023-07-02T07:38:44;15.27;;;10.05;;
8225;SDS011;4154;48.810;9.012;2023-07-02T07:41:10;14.75;;;10.50;;
8225;SDS011;4154;48.810;9.012;2023-07-02T07:43:36;17.75;;;11.43;;
8225;SDS011;4154;48.810;9.012;2023-07-02T07:46:02;17.65;;;11.05;;
8225;SDS011;4154;48.810;9.012;2023-07-02T07:48:28;16.65;;;11.07;;
8225;SDS011;4154;48.810;9.012;2023-07-02T07:50:54;14.88;;;11.30;;
8225;SDS011;4154;48.810;9.012;2023-07-02T07:53:20;14.18;;;11.50;;
8225;SDS011;4154;48.810;9.012;2023-07-02T07:55:46;18.65;;;11.70;;
8225;SDS011;4154;48.810;9.012;2023-07-02T07:58:13;17.02;;;11.65;;
8225;SDS011;4154;48.810;9.012;2023-07-02T08:00:38;15.45;;;11.38;;
8225;SDS011;4154;48.810;9.012;2023-07-02T08:03:04;16.25;;;11.18;;
8225;SDS011;4154;48.810;9.012;2023-07-02T08:05:30;15.63;;;11.07;;
8225;SDS011;4154;48.810;9.012;2023-07-02T08:07:56;15.80;;;11.30;;
8225;SDS011;4154;48.810;9.012;2023-07-02T08:10:23;15.52;;;10.68;;
8225;SDS011;4154;48.810;9.012;2023-07-02T08:12:50;15.30;;;11.20;;
8225;SDS011;4154;48.810;9.012;2023-07-02T08:15:19;15.13;;;10.95;;
8225;SDS011;4154;48.810;9.012;2023-07-02T08:17:45;16.38;;;10.90;;
8225;SDS011;4154;48.810;9.012;2023-07-02T08:20:11;14.63;;;10.63;;
8225;SDS011;4154;48.810;9.012;2023-07-02T08:22:37;17.70;;;10.60;;
8225;SDS011;4154;48.810;9.012;2023-07-02T08:25:04;14.40;;;10.77;;
8225;SDS011;4154;48.810;9.012;2023-07-02T08:27:31;15.35;;;10.88;;
8225;SDS011;4154;48.810;9.012;2023-07-02T08:29:57;14.50;;;10.07;;
8225;SDS011;4154;48.810;9.012;2023-07-02T08:32:23;15.30;;;11.00;;
8225;SDS011;4154;48.810;9.012;2023-07-02T08:34:49;12.48;;;10.13;;
8225;SDS011;4154;48.810;9.012;2023-07-02T08:37:18;15.30;;;10.23;;
8225;SDS011;4154;48.810;9.012;2023-07-02T08:39:45;15.65;;;10.57;;
8225;SDS011;4154;48.810;9.012;2023-07-02T08:42:11;15.43;;;10.70;;
8225;SDS011;4154;48.810;9.012;2023-07-02T08:44:37;15.00;;;10.40;;
8225;SDS011;4154;48.810;9.012;2023-07-02T08:47:03;17.23;;;10.77;;
8225;SDS011;4154;48.810;9.012;2023-07-02T08:49:30;16.67;;;10.80;;
8225;SDS011;4154;48.810;9.012;2023-07-02T08:51:57;16.38;;;10.38;;
8225;SDS011;4154;48.810;9.012;2023-07-02T08:54:23;14.90;;;10.68;;
8225;SDS011;4154;48.810;9.012;2023-07-02T08:56:49;15.50;;;10.65;;
8225;SDS011;4154;48.810;9.012;2023-07-02T08:59:15;15.82;;;10.88;;
8225;SDS011;4154;48.810;9.012;2023-07-02T09:01:48;16.92;;;11.05;;
8225;SDS011;4154;48.810;9.012;2023-07-02T09:04:16;15.32;;;10.75;;
8225;SDS011;4154;48.810;9.012;2023-07-02T09:06:47;15.85;;;10.90;;
8225;SDS011;4154;48.810;9.012;2023-07-02T09:09:13;15.30;;;11.63;;
8225;SDS011;4154;48.810;9.012;2023-07-02T09:11:46;15.18;;;10.40;;
8225;SDS011;4154;48.810;9.012;2023-07-02T09:14:23;13.88;;;10.32;;
8225;SDS011;4154;48.810;9.012;2023-07-02T09:17:04;16.83;;;11.32;;
8225;SDS011;4154;48.810;9.012;2023-07-02T09:19:32;16.48;;;10.65;;
8225;SDS011;4154;48.810;9.012;2023-07-02T09:21:59;14.25;;;10.88;;
8225;SDS011;4154;48.810;9.012;2023-07-02T09:24:26;14.75;;;10.55;;
8225;SDS011;4154;48.810;9.012;2023-07-02T09:26:55;17.80;;;11.68;;
8225;SDS011;4154;48.810;9.012;2023-07-02T09:29:27;15.07;;;11.43;;
8225;SDS011;4154;48.810;9.012;2023-07-02T09:31:54;13.75;;;10.68;;
8225;SDS011;4154;48.810;9.012;2023-07-02T09:34:29;16.52;;;10.68;;
8225;SDS011;4154;48.810;9.012;2023-07-02T09:36:57;17.33;;;10.73;;
8225;SDS011;4154;48.810;9.012;2023-07-02T09:39:25;14.23;;;10.23;;
8225;SDS011;4154;48.810;9.012;2023-07-02T09:41:54;15.23;;;10.57;;
8225;SDS011;4154;48.810;9.012;2023-07-02T09:44:25;16.00;;;11.00;;
8225;SDS011;4154;48.810;9.012;2023-07-02T09:47:08;16.10;;;10.38;;
8225;SDS011;4154;48.810;9.012;2023-07-02T09:49:39;12.48;;;10.85;;
8225;SDS011;4154;48.810;9.012;2023-07-02T09:52:10;15.70;;;10.65;;
8225;SDS011;4154;48.810;9.012;2023-07-02T09:54:38;16.15;;;10.82;;
8225;SDS011;4154;48.810;9.012;2023-07-02T09:57:04;15.90;;;10.95;;
8225;SDS011;4154;48.810;9.012;2023-07-02T09:59:32;16.00;;;10.98;;
8225;SDS011;4154;48.810;9.012;2023-07-02T10:01:57;15.70;;;10.60;;
8225;SDS011;4154;48.810;9.012;2023-07-02T10:04:24;16.23;;;10.95;;
8225;SDS011;4154;48.810;9.012;2023-07-02T10:06:54;14.18;;;11.07;;
8225;SDS011;4154;48.810;9.012;2023-07-02T10:09:34;12.93;;;10.50;;
8225;SDS011;4154;48.810;9.012;2023-07-02T10:12:16;16.20;;;10.20;;
8225;SDS011;4154;48.810;9.012;2023-07-02T10:14:48;14.02;;;10.60;;
8225;SDS011;4154;48.810;9.012;2023-07-02T10:17:24;13.43;;;10.10;;
8225;SDS011;4154;48.810;9.012;2023-07-02T10:19:50;13.95;;;9.93;;
8225;SDS011;4154;48.810;9.012;2023-07-02T10:22:21;14.20;;;10.30;;
8225;SDS011;4154;48.810;9.012;2023-07-02T10:24:51;13.52;;;9.68;;
8225;SDS011;4154;48.810;9.012;2023-07-02T10:27:18;14.60;;;10.88;;
8225;SDS011;4154;48.810;9.012;2023-07-02T10:29:51;13.60;;;10.88;;
8225;SDS011;4154;48.810;9.012;2023-07-02T10:32:26;14.60;;;10.85;;
8225;SDS011;4154;48.810;9.012;2023-07-02T10:34:54;14.32;;;11.43;;
8225;SDS011;4154;48.810;9.012;2023-07-02T10:37:20;14.20;;;10.82;;
8225;SDS011;4154;48.810;9.012;2023-07-02T10:39:46;17.02;;;11.27;;
8225;SDS011;4154;48.810;9.012;2023-07-02T10:42:12;12.57;;;10.75;;
8225;SDS011;4154;48.810;9.012;2023-07-02T10:44:49;13.82;;;10.68;;
8225;SDS011;4154;48.810;9.012;2023-07-02T10:47:17;16.35;;;11.38;;
8225;SDS011;4154;48.810;9.012;2023-07-02T10:49:44;15.52;;;11.20;;
8225;SDS011;4154;48.810;9.012;2023-07-02T10:52:10;14.18;;;11.13;;
8225;SDS011;4154;48.810;9.012;2023-07-02T10:54:40;14.00;;;10.98;;
8225;SDS011;4154;48.810;9.012;2023-07-02T10:57:10;15.85;;;10.65;;
8225;SDS011;4154;48.810;9.012;2023-07-02T10:59:40;13.10;;;10.55;;
8225;SDS011;4154;48.810;9.012;2023-07-02T11:02:05;14.05;;;11.45;;
8225;SDS011;4154;48.810;9.012;2023-07-02T11:04:33;14.48;;;10.95;;
8225;SDS011;4154;48.810;9.012;2023-07-02T11:06:59;12.50;;;10.55;;
8225;SDS011;4154;48.810;9.012;2023-07-02T11:09:25;16.25;;;10.77;;
8225;SDS011;4154;48.810;9.012;2023-07-02T11:11:55;15.23;;;11.23;;
8225;SDS011;4154;48.810;9.012;2023-07-02T11:14:26;12.82;;;10.52;;
8225;SDS011;4154;48.810;9.012;2023-07-02T11:16:56;15.82;;;10.73;;
8225;SDS011;4154;48.810;9.012;2023-07-02T11:19:24;12.88;;;10.45;;
8225;SDS011;4154;48.810;9.012;2023-07-02T11:21:54;15.60;;;11.13;;
8225;SDS011;4154;48.810;9.012;2023-07-02T11:24:35;14.45;;;10.38;;
8225;SDS011;4154;48.810;9.012;2023-07-02T11:27:04;13.60;;;10.60;;
8225;SDS011;4154;48.810;9.012;2023-07-02T11:29:31;15.00;;;10.93;;
8225;SDS011;4154;48.810;9.012;2023-07-02T11:32:04;15.07;;;10.73;;
8225;SDS011;4154;48.810;9.012;2023-07-02T11:34:39;15.55;;;11.45;;
8225;SDS011;4154;48.810;9.012;2023-07-02T11:37:05;15.23;;;11.55;;
8225;SDS011;4154;48.810;9.012;2023-07-02T11:39:32;16.60;;;11.60;;
8225;SDS011;4154;48.810;9.012;2023-07-02T11:41:58;13.95;;;11.18;;
8225;SDS011;4154;48.810;9.012;2023-07-02T11:44:24;14.23;;;10.93;;
8225;SDS011;4154;48.810;9.012;2023-07-02T11:46:50;17.00;;;11.45;;
8225;SDS011;4154;48.810;9.012;2023-07-02T11:49:17;14.68;;;11.25;;
8225;SDS011;4154;48.810;9.012;2023-07-02T11:51:42;14.25;;;11.55;;
8225;SDS011;4154;48.810;9.012;2023-07-02T11:54:14;14.38;;;10.93;;
8225;SDS011;4154;48.810;9.012;2023-07-02T11:56:42;15.68;;;11.60;;
8225;SDS011;4154;48.810;9.012;2023-07-02T11:59:08;18.08;;;12.43;;
8225;SDS011;4154;48.810;9.012;2023-07-02T12:01:35;15.50;;;11.15;;
8225;SDS011;4154;48.810;9.012;2023-07-02T12:04:01;13.82;;;10.63;;
8225;SDS011;4154;48.810;9.012;2023-07-02T12:06:27;13.10;;;10.95;;
8225;SDS011;4154;48.810;9.012;2023-07-02T12:08:53;16.83;;;11.65;;
8225;SDS011;4154;48.810;9.012;2023-07-02T12:11:19;14.60;;;11.40;;
8225;SDS011;4154;48.810;9.012;2023-07-02T12:13:44;16.08;;;11.70;;
8225;SDS011;4154;48.810;9.012;2023-07-02T12:16:10;14.95;;;11.77;;
8225;SDS011;4154;48.810;9.012;2023-07-02T12:18:36;16.92;;;11.82;;
8225;SDS011;4154;48.810;9.012;2023-07-02T12:21:02;15.85;;;11.15;;
8225;SDS011;4154;48.810;9.012;2023-07-02T12:23:28;14.25;;;11.30;;
8225;SDS011;4154;48.810;9.012;2023-07-02T12:25:54;18.33;;;11.40;;
8225;SDS011;4154;48.810;9.012;2023-07-02T12:28:20;16.08;;;11.75;;
8225;SDS011;4154;48.810;9.012;2023-07-02T12:30:46;14.43;;;11.88;;
8225;SDS011;4154;48.810;9.012;2023-07-02T12:33:14;15.48;;;11.13;;
8225;SDS011;4154;48.810;9.012;2023-07-02T12:35:40;16.15;;;11.80;;
8225;SDS011;4154;48.810;9.012;2023-07-02T12:38:06;16.65;;;12.15;;
8225;SDS011;4154;48.810;9.012;2023-07-02T12:40:33;16.02;;;11.85;;
8225;SDS011;4154;48.810;9.012;2023-07-02T12:42:59;15.82;;;11.60;;
8225;SDS011;4154;48.810;9.012;2023-07-02T12:45:25;13.57;;;11.60;;
8225;SDS011;4154;48.810;9.012;2023-07-02T12:47:51;14.23;;;11.63;;
8225;SDS011;4154;48.810;9.012;2023-07-02T12:50:17;15.23;;;11.45;;
8225;SDS011;4154;48.810;9.012;2023-07-02T12:52:43;16.17;;;11.80;;
8225;SDS011;4154;48.810;9.012;2023-07-02T12:55:09;15.02;;;11.55;;
8225;SDS011;4154;48.810;9.012;2023-07-02T12:57:35;15.30;;;10.85;;
8225;SDS011;4154;48.810;9.012;2023-07-02T13:00:01;15.38;;;11.57;;
8225;SDS011;4154;48.810;9.012;2023-07-02T13:02:27;14.05;;;11.20;;
8225;SDS011;4154;48.810;9.012;2023-07-02T13:04:52;16.95;;;11.23;;
8225;SDS011;4154;48.810;9.012;2023-07-02T13:07:18;14.02;;;11.25;;
8225;SDS011;4154;48.810;9.012;2023-07-02T13:09:44;14.45;;;11.10;;
8225;SDS011;4154;48.810;9.012;2023-07-02T13:12:10;15.13;;;11.30;;
8225;SDS011;4154;48.810;9.012;2023-07-02T13:14:37;16.85;;;11.20;;
8225;SDS011;4154;48.810;9.012;2023-07-02T13:17:03;15.35;;;11.95;;
8225;SDS011;4154;48.810;9.012;2023-07-02T13:19:30;14.75;;;11.48;;
8225;SDS011;4154;48.810;9.012;2023-07-02T13:21:57;13.82;;;11.52;;
8225;SDS011;4154;48.810;9.012;2023-07-02T13:24:23;13.55;;;10.82;;
8225;SDS011;4154;48.810;9.012;2023-07-02T13:26:49;17.02;;;12.20;;
8225;SDS011;4154;48.810;9.012;2023-07-02T13:29:15;14.35;;;11.68;;
8225;SDS011;4154;48.810;9.012;2023-07-02T13:31:41;14.82;;;11.82;;
8225;SDS011;4154;48.810;9.012;2023-07-02T13:34:08;14.35;;;11.55;;
8225;SDS011;4154;48.810;9.012;2023-07-02T13:36:33;14.40;;;11.40;;
8225;SDS011;4154;48.810;9.012;2023-07-02T13:38:59;14.40;;;11.48;;
8225;SDS011;4154;48.810;9.012;2023-07-02T13:41:25;16.08;;;11.95;;
8225;SDS011;4154;48.810;9.012;2023-07-02T13:43:51;14.90;;;11.35;;
8225;SDS011;4154;48.810;9.012;2023-07-02T13:46:17;15.10;;;11.90;;
8225;SDS011;4154;48.810;9.012;2023-07-02T13:48:43;14.80;;;11.25;;
8225;SDS011;4154;48.810;9.012;2023-07-02T13:51:09;14.57;;;11.73;;
8225;SDS011;4154;48.810;9.012;2023-07-02T13:53:35;14.23;;;11.63;;
8225;SDS011;4154;48.810;9.012;2023-07-02T13:56:01;14.82;;;12.00;;
8225;SDS011;4154;48.810;9.012;2023-07-02T13:58:26;14.73;;;11.20;;
8225;SDS011;4154;48.810;9.012;2023-07-02T14:01:09;15.75;;;11.98;;
8225;SDS011;4154;48.810;9.012;2023-07-02T14:03:35;15.70;;;11.90;;
8225;SDS011;4154;48.810;9.012;2023-07-02T14:06:01;13.55;;;10.90;;
8225;SDS011;4154;48.810;9.012;2023-07-02T14:08:27;17.08;;;11.63;;
8225;SDS011;4154;48.810;9.012;2023-07-02T14:10:53;14.60;;;11.45;;
8225;SDS011;4154;48.810;9.012;2023-07-02T14:13:18;15.60;;;11.13;;
8225;SDS011;4154;48.810;9.012;2023-07-02T14:15:44;14.77;;;11.50;;
8225;SDS011;4154;48.810;9.012;2023-07-02T14:18:10;14.63;;;11.48;;
8225;SDS011;4154;48.810;9.012;2023-07-02T14:20:36;13.65;;;11.10;;
8225;SDS011;4154;48.810;9.012;2023-07-02T14:23:02;13.80;;;10.85;;
8225;SDS011;4154;48.810;9.012;2023-07-02T14:25:28;14.57;;;11.07;;
8225;SDS011;4154;48.810;9.012;2023-07-02T14:27:54;14.82;;;11.38;;
8225;SDS011;4154;48.810;9.012;2023-07-02T14:30:19;12.98;;;11.35;;
8225;SDS011;4154;48.810;9.012;2023-07-02T14:32:45;13.13;;;11.20;;
8225;SDS011;4154;48.810;9.012;2023-07-02T14:35:11;12.70;;;11.07;;
8225;SDS011;4154;48.810;9.012;2023-07-02T14:37:37;13.82;;;11.13;;
8225;SDS011;4154;48.810;9.012;2023-07-02T14:40:03;14.30;;;12.02;;
8225;SDS011;4154;48.810;9.012;2023-07-02T14:42:29;12.73;;;11.02;;
8225;SDS011;4154;48.810;9.012;2023-07-02T14:44:55;14.65;;;10.90;;
8225;SDS011;4154;48.810;9.012;2023-07-02T14:47:21;14.40;;;11.75;;
8225;SDS011;4154;48.810;9.012;2023-07-02T14:49:47;13.55;;;11.38;;
8225;SDS011;4154;48.810;9.012;2023-07-02T14:52:13;13.88;;;11.50;;
8225;SDS011;4154;48.810;9.012;2023-07-02T14:54:39;14.07;;;12.07;;
8225;SDS011;4154;48.810;9.012;2023-07-02T14:57:05;15.85;;;11.82;;
8225;SDS011;4154;48.810;9.012;2023-07-02T14:59:31;17.75;;;12.43;;
8225;SDS011;4154;48.810;9.012;2023-07-02T15:01:57;13.65;;;11.77;;